Borssele, Netherlands
Current Conditions -  °F | °C
As of 5:55 PM on Friday 28 Nov 2014 (Local Time) from EHFS Reporting Station
Clear Clear  
Wind Chill: 50°   Ceiling: Unl
Heat Index: 50°   Visibility: 6mi
Dew Point: 45°   Wind: 16mph
Humidity: 82%   Direction: 80°E
Pressure: 29.71"   Gusts: NA
Location:  51.42°N, 3.73°E
Report Text: EHFS 281655Z AUTO 08014KT 9999 NSC 10/07 Q1006
Loading
Personal Weather Stations






























Interactive Weather Map New forecast layout! Learn more

10-Day Weather Forecast

Advertisements
Track Severe Weather on mobile